Time;durP1;ratioP1;P1;durP2;ratioP2;P2;SDS_P1;SDS_P2;PMS_P1;PMS_P2;Temp;Humidity;BMP_temperature;BMP_pressure;BME280_temperature;BME280_humidity;BME280_pressure;Samples;Min_cycle;Max_cycle;Signal;HPM_P1;HPM_P2
2021/08/20 00:01:29;;;;;;;5.03;3.83;;;19.70;68.20;;;;;;5036926;28;20033;-76
2021/08/20 00:03:55;;;;;;;5.05;4.20;;;19.70;68.20;;;;;;5052724;28;20056;-77
2021/08/20 00:06:22;;;;;;;5.30;4.05;;;19.60;68.20;;;;;;5033317;28;20481;-77
2021/08/20 00:08:47;;;;;;;4.63;3.75;;;19.60;68.20;;;;;;5019928;28;20492;-78
2021/08/20 00:11:13;;;;;;;5.78;4.57;;;19.60;68.20;;;;;;5053266;28;20033;-77
2021/08/20 00:13:39;;;;;;;4.97;4.00;;;19.60;68.20;;;;;;5036343;28;20029;-77
2021/08/20 00:16:06;;;;;;;5.85;4.50;;;19.60;68.20;;;;;;5035942;28;20052;-77
2021/08/20 00:18:33;;;;;;;5.35;4.25;;;19.60;68.20;;;;;;5053170;28;20029;-76
2021/08/20 00:20:59;;;;;;;5.75;4.00;;;19.60;68.20;;;;;;5034942;28;20041;-76
2021/08/20 00:23:24;;;;;;;4.95;4.10;;;19.60;68.20;;;;;;5054778;28;20033;-77
2021/08/20 00:25:50;;;;;;;5.53;4.13;;;19.60;68.20;;;;;;5052578;28;20041;-78
2021/08/20 00:28:16;;;;;;;5.05;4.18;;;19.60;68.20;;;;;;5033243;28;20040;-76
2021/08/20 00:30:42;;;;;;;5.10;3.95;;;19.60;68.20;;;;;;5049570;28;20032;-76
2021/08/20 00:33:07;;;;;;;4.82;3.85;;;19.60;68.40;;;;;;5035890;28;20036;-77
2021/08/20 00:35:33;;;;;;;5.45;4.00;;;19.60;68.30;;;;;;5052707;28;20037;-77
2021/08/20 00:37:59;;;;;;;4.85;3.90;;;19.60;68.40;;;;;;5002854;28;20487;-77
2021/08/20 00:40:25;;;;;;;5.25;4.20;;;19.50;68.20;;;;;;5052582;28;20039;-77
2021/08/20 00:42:50;;;;;;;6.07;4.32;;;19.50;68.90;;;;;;5033235;28;20044;-77
2021/08/20 00:45:16;;;;;;;5.07;4.05;;;19.50;68.20;;;;;;5052797;28;20025;-77
2021/08/20 00:47:42;;;;;;;4.78;3.65;;;19.50;68.30;;;;;;5052573;28;20067;-77
2021/08/20 00:50:08;;;;;;;5.18;4.00;;;19.50;68.30;;;;;;5053448;28;20021;-77
2021/08/20 00:52:35;;;;;;;5.25;4.40;;;19.50;68.20;;;;;;5035379;28;20052;-76
2021/08/20 00:55:03;;;;;;;5.57;4.35;;;19.50;68.30;;;;;;5052131;28;20087;-76
2021/08/20 00:57:29;;;;;;;6.13;4.60;;;19.50;68.20;;;;;;5052383;28;20025;-77
2021/08/20 00:59:56;;;;;;;5.85;4.03;;;19.50;68.20;;;;;;5052111;28;20056;-77
2021/08/20 01:02:21;;;;;;;5.22;4.03;;;19.50;68.30;;;;;;5028245;28;20087;-76
2021/08/20 01:04:47;;;;;;;5.32;4.22;;;19.40;68.20;;;;;;5051949;28;20075;-77
2021/08/20 01:07:16;;;;;;;4.75;3.95;;;19.50;68.30;;;;;;5051831;28;20299;-77
2021/08/20 01:09:42;;;;;;;6.05;4.07;;;19.40;68.20;;;;;;5052343;28;20025;-77
2021/08/20 01:12:08;;;;;;;5.00;3.78;;;19.40;68.20;;;;;;5034779;28;20132;-77
2021/08/20 01:14:37;;;;;;;5.00;3.90;;;19.40;68.20;;;;;;5036043;28;20086;-77
2021/08/20 01:17:08;;;;;;;5.55;4.20;;;19.40;68.30;;;;;;5051595;28;20473;-77
2021/08/20 01:19:37;;;;;;;5.37;4.07;;;19.30;68.30;;;;;;5026215;28;20033;-76
2021/08/20 01:22:08;;;;;;;4.22;3.25;;;19.40;68.30;;;;;;5049868;28;20485;-77
2021/08/20 01:24:39;;;;;;;4.45;3.50;;;19.40;68.30;;;;;;5045571;28;20025;-77
2021/08/20 01:27:05;;;;;;;4.90;3.67;;;19.30;68.30;;;;;;5051342;28;20440;-78
2021/08/20 01:29:32;;;;;;;5.40;4.18;;;19.30;68.30;;;;;;5032212;28;20116;-77
2021/08/20 01:31:58;;;;;;;5.63;3.72;;;19.30;68.30;;;;;;5040382;28;20084;-76
2021/08/20 01:34:24;;;;;;;4.63;3.75;;;19.30;68.30;;;;;;5050971;28;20485;-76
2021/08/20 01:36:52;;;;;;;4.45;3.58;;;19.30;68.40;;;;;;5051451;28;20033;-77
2021/08/20 01:39:18;;;;;;;4.80;3.75;;;19.30;68.40;;;;;;5050939;28;20063;-77
2021/08/20 01:41:44;;;;;;;6.47;4.18;;;19.30;68.50;;;;;;5035183;28;20025;-76
2021/08/20 01:44:10;;;;;;;4.80;3.95;;;19.20;68.30;;;;;;5034637;28;20167;-77
2021/08/20 01:46:36;;;;;;;4.93;3.75;;;19.30;68.50;;;;;;5034942;28;20033;-77
2021/08/20 01:49:03;;;;;;;5.07;4.15;;;19.20;68.40;;;;;;5018151;28;20048;-77
2021/08/20 01:51:31;;;;;;;5.78;4.18;;;19.20;68.40;;;;;;5051149;28;20442;-76
2021/08/20 01:53:59;;;;;;;6.53;4.13;;;19.20;68.40;;;;;;5051217;28;20057;-76
2021/08/20 01:56:31;;;;;;;5.35;4.20;;;19.20;68.40;;;;;;5051049;28;20056;-77
2021/08/20 01:59:00;;;;;;;4.80;3.95;;;19.20;68.50;;;;;;5035036;28;20112;-77
2021/08/20 02:01:28;;;;;;;4.90;3.60;;;19.20;68.40;;;;;;5051045;28;20503;-77
2021/08/20 02:03:54;;;;;;;5.03;3.78;;;19.20;68.50;;;;;;5034642;28;20120;-77
2021/08/20 02:06:20;;;;;;;5.15;3.75;;;19.20;68.50;;;;;;5033861;28;20128;-77
2021/08/20 02:08:46;;;;;;;4.63;3.50;;;19.10;68.80;;;;;;5031170;28;20558;-76
2021/08/20 02:11:12;;;;;;;5.10;3.75;;;19.10;68.50;;;;;;5050885;28;20432;-77
2021/08/20 02:13:45;;;;;;;5.10;3.75;;;19.10;68.50;;;;;;5050802;28;20035;-77
2021/08/20 02:16:12;;;;;;;5.40;3.88;;;19.10;68.50;;;;;;5050530;28;20409;-76
2021/08/20 02:18:38;;;;;;;5.93;4.00;;;19.10;68.50;;;;;;5016229;28;20034;-78
2021/08/20 02:21:04;;;;;;;4.90;3.83;;;19.10;68.50;;;;;;5017330;28;20423;-77
2021/08/20 02:23:34;;;;;;;5.18;3.83;;;19.00;68.50;;;;;;5034005;28;20496;-77
2021/08/20 02:26:03;;;;;;;4.70;3.38;;;19.10;68.60;;;;;;5043189;28;20043;-77
2021/08/20 02:28:29;;;;;;;4.80;3.63;;;19.10;68.50;;;;;;5034224;28;20108;-76
2021/08/20 02:30:58;;;;;;;5.05;3.88;;;19.00;69.20;;;;;;5018470;28;20037;-76
2021/08/20 02:33:24;;;;;;;4.72;3.58;;;19.00;68.60;;;;;;5050338;28;20477;-76
2021/08/20 02:35:51;;;;;;;4.75;3.53;;;19.00;68.60;;;;;;5033536;28;20040;-77
2021/08/20 02:38:17;;;;;;;5.43;4.10;;;19.00;68.60;;;;;;5034007;28;20060;-77
2021/08/20 02:40:43;;;;;;;6.22;4.03;;;19.00;68.60;;;;;;5030617;28;20116;-77
2021/08/20 02:43:09;;;;;;;4.85;3.60;;;19.00;68.60;;;;;;5049962;28;20036;-77
2021/08/20 02:45:37;;;;;;;6.07;4.15;;;19.00;68.60;;;;;;5034522;28;20446;-77
2021/08/20 02:48:04;;;;;;;7.28;4.00;;;19.00;68.60;;;;;;5030534;28;20041;-78
2021/08/20 02:50:31;;;;;;;4.60;3.72;;;18.90;68.60;;;;;;5034212;28;20017;-77
2021/08/20 02:52:58;;;;;;;5.95;4.10;;;19.00;68.70;;;;;;5033861;28;20053;-77
2021/08/20 02:55:28;;;;;;;5.68;4.35;;;19.00;68.70;;;;;;5049968;28;20033;-76
2021/08/20 02:57:54;;;;;;;5.22;4.05;;;19.00;68.70;;;;;;5050649;28;20069;-77
2021/08/20 03:00:20;;;;;;;5.38;3.95;;;19.00;68.70;;;;;;5033562;28;20029;-76
2021/08/20 03:02:47;;;;;;;4.88;3.95;;;18.90;68.70;;;;;;5034073;28;20477;-77
2021/08/20 03:05:13;;;;;;;4.85;3.67;;;19.00;68.70;;;;;;5030220;28;20059;-77
2021/08/20 03:07:39;;;;;;;5.65;4.03;;;19.00;68.70;;;;;;5032117;28;20033;-77
2021/08/20 03:10:06;;;;;;;5.93;4.32;;;18.90;68.70;;;;;;5030528;28;20044;-78
2021/08/20 03:12:34;;;;;;;5.47;4.07;;;18.90;68.70;;;;;;5039974;28;20033;-76
2021/08/20 03:15:00;;;;;;;5.28;4.10;;;18.90;68.70;;;;;;5050224;28;20461;-77
2021/08/20 03:17:30;;;;;;;5.00;3.75;;;18.90;69.40;;;;;;5030672;28;20409;-76
2021/08/20 03:19:56;;;;;;;5.55;4.45;;;18.90;68.70;;;;;;5033197;28;20087;-76
2021/08/20 03:22:22;;;;;;;5.75;4.07;;;18.90;68.80;;;;;;5017018;28;20033;-76
2021/08/20 03:24:48;;;;;;;5.03;4.18;;;18.90;68.90;;;;;;5031445;28;20041;-76
2021/08/20 03:27:13;;;;;;;5.80;4.57;;;18.90;68.80;;;;;;5050178;28;20366;-76
2021/08/20 03:29:49;;;;;;;5.45;4.47;;;18.90;68.80;;;;;;5049890;28;20029;-77
2021/08/20 03:32:24;;;;;;;5.70;4.63;;;18.90;68.80;;;;;;5049797;28;20587;-76
2021/08/20 03:34:54;;;;;;;5.90;4.60;;;18.90;68.80;;;;;;5051474;28;20037;-77
2021/08/20 03:37:21;;;;;;;5.75;4.40;;;18.90;68.80;;;;;;5053760;28;20465;-77
2021/08/20 03:39:47;;;;;;;6.60;4.78;;;18.90;68.80;;;;;;5054156;28;20110;-77
2021/08/20 03:42:17;;;;;;;6.00;4.55;;;18.90;68.80;;;;;;5037238;28;20033;-76
2021/08/20 03:45:03;;;;;;;5.68;4.80;;;18.90;68.90;;;;;;5053479;28;20095;-76
2021/08/20 03:47:29;;;;;;;6.03;4.25;;;18.80;68.80;;;;;;5053631;28;20291;-76
2021/08/20 03:49:55;;;;;;;5.50;4.32;;;18.80;68.80;;;;;;5037319;28;20470;-77
2021/08/20 03:52:22;;;;;;;5.70;4.43;;;18.90;68.90;;;;;;5019681;28;20131;-76
2021/08/20 03:54:48;;;;;;;6.15;4.70;;;18.80;68.80;;;;;;5037246;28;20076;-77
2021/08/20 03:57:18;;;;;;;6.13;4.93;;;18.80;68.80;;;;;;5053131;28;20036;-76
2021/08/20 03:59:43;;;;;;;6.70;4.95;;;18.90;68.90;;;;;;5053519;28;20033;-77
2021/08/20 04:02:14;;;;;;;5.60;4.43;;;18.80;68.80;;;;;;5053001;28;20370;-78
2021/08/20 04:04:41;;;;;;;6.53;4.80;;;18.90;68.90;;;;;;5033847;28;20026;-77
2021/08/20 04:07:21;;;;;;;6.25;4.60;;;18.90;68.90;;;;;;5050199;28;20116;-77
2021/08/20 04:10:10;;;;;;;5.88;4.38;;;18.80;68.90;;;;;;5053601;28;20025;-76
2021/08/20 04:12:55;;;;;;;6.15;4.45;;;18.90;68.90;;;;;;5039258;28;20128;-77
2021/08/20 04:15:26;;;;;;;5.75;4.57;;;18.80;68.80;;;;;;5052873;28;20044;-77
2021/08/20 04:17:52;;;;;;;6.57;5.30;;;18.80;68.90;;;;;;5053263;28;20037;-76
2021/08/20 04:20:17;;;;;;;6.25;4.80;;;18.90;68.90;;;;;;5036227;28;20389;-77
2021/08/20 04:22:44;;;;;;;6.78;4.95;;;18.90;69.00;;;;;;5036277;28;20075;-76
2021/08/20 04:25:10;;;;;;;6.53;4.70;;;18.80;68.90;;;;;;5036455;28;20044;-77
2021/08/20 04:28:00;;;;;;;6.15;4.85;;;18.80;68.90;;;;;;5053021;28;20032;-77
2021/08/20 04:30:52;;;;;;;6.20;4.78;;;18.90;68.90;;;;;;5052204;28;20025;-77
2021/08/20 04:33:28;;;;;;;6.18;4.80;;;18.80;68.90;;;;;;5037175;28;20032;-77
2021/08/20 04:36:20;;;;;;;5.82;4.38;;;18.90;69.00;;;;;;5047033;28;20489;-76
2021/08/20 04:39:01;;;;;;;6.78;5.13;;;18.90;69.00;;;;;;5023945;28;20036;-76
2021/08/20 04:41:42;;;;;;;5.88;4.82;;;18.90;69.00;;;;;;5052550;28;20116;-76
2021/08/20 04:44:21;;;;;;;6.28;4.95;;;18.80;68.90;;;;;;5037807;28;20037;-77
2021/08/20 04:47:09;;;;;;;6.18;4.95;;;18.80;69.10;;;;;;5052429;28;20116;-76
2021/08/20 04:50:04;;;;;;;5.85;4.72;;;18.80;68.90;;;;;;5045357;28;20025;-76
2021/08/20 04:52:53;;;;;;;6.10;4.65;;;18.90;69.00;;;;;;5042363;28;20053;-77
2021/08/20 04:55:41;;;;;;;6.20;5.22;;;18.80;68.90;;;;;;5038704;28;20071;-76
2021/08/20 04:58:07;;;;;;;6.68;5.47;;;18.80;68.90;;;;;;5019425;28;20033;-76
2021/08/20 05:00:34;;;;;;;6.45;4.80;;;18.80;69.00;;;;;;5053282;28;20481;-76
2021/08/20 05:03:00;;;;;;;6.70;4.93;;;18.80;69.00;;;;;;5034816;28;20450;-76
2021/08/20 05:05:27;;;;;;;6.95;5.40;;;18.80;69.00;;;;;;5052031;28;20065;-76
2021/08/20 05:07:53;;;;;;;6.38;5.05;;;18.80;69.00;;;;;;5035091;28;20033;-77
2021/08/20 05:10:19;;;;;;;6.15;5.10;;;18.90;69.10;;;;;;5052937;28;20021;-78
2021/08/20 05:12:45;;;;;;;6.10;4.95;;;18.80;69.00;;;;;;5052998;28;20044;-76
2021/08/20 05:15:11;;;;;;;6.13;4.82;;;18.80;69.00;;;;;;5035555;28;20393;-77
2021/08/20 05:17:37;;;;;;;6.60;5.20;;;18.80;69.00;;;;;;5031831;28;20532;-77
2021/08/20 05:20:04;;;;;;;6.70;5.43;;;18.80;69.00;;;;;;5034264;28;20112;-77
2021/08/20 05:22:44;;;;;;;6.82;5.20;;;18.90;69.10;;;;;;5051750;28;20040;-76
2021/08/20 05:25:10;;;;;;;6.70;5.10;;;18.80;69.20;;;;;;5051863;28;20103;-77
2021/08/20 05:27:36;;;;;;;6.30;4.97;;;18.80;69.00;;;;;;5052764;28;20021;-76
2021/08/20 05:30:02;;;;;;;6.25;5.05;;;18.90;69.10;;;;;;5052825;28;20082;-76
2021/08/20 05:32:28;;;;;;;5.80;4.72;;;18.80;69.00;;;;;;5052700;28;20042;-76
2021/08/20 05:34:54;;;;;;;6.60;5.22;;;18.80;69.00;;;;;;5052777;28;20033;-77
2021/08/20 05:37:20;;;;;;;6.50;5.15;;;18.80;69.00;;;;;;5051602;28;20075;-76
2021/08/20 05:39:46;;;;;;;6.50;4.80;;;18.90;69.10;;;;;;5051266;28;20082;-77
2021/08/20 05:42:11;;;;;;;6.30;5.05;;;18.90;69.20;;;;;;5034829;28;20040;-76
2021/08/20 05:44:37;;;;;;;7.28;5.32;;;18.80;69.00;;;;;;5050930;28;20025;-76
2021/08/20 05:47:03;;;;;;;6.18;4.68;;;18.80;69.00;;;;;;5051089;28;20025;-77
2021/08/20 05:49:29;;;;;;;6.40;5.05;;;18.80;69.00;;;;;;5031394;28;20029;-76
2021/08/20 05:51:54;;;;;;;6.30;4.88;;;18.90;69.00;;;;;;5030782;28;20508;-77
2021/08/20 05:54:20;;;;;;;6.57;5.18;;;18.90;69.10;;;;;;5034607;28;20037;-76
2021/08/20 05:56:46;;;;;;;7.28;4.75;;;18.90;69.10;;;;;;5030325;28;20525;-76
2021/08/20 05:59:12;;;;;;;6.55;4.82;;;18.90;69.10;;;;;;5032697;28;20112;-76
2021/08/20 06:01:38;;;;;;;6.55;4.95;;;18.90;69.10;;;;;;5034555;28;20040;-77
2021/08/20 06:04:04;;;;;;;6.32;4.97;;;18.90;69.10;;;;;;5034138;28;20029;-78
2021/08/20 06:06:38;;;;;;;7.05;5.05;;;18.90;69.10;;;;;;5050893;28;20451;-77
2021/08/20 06:09:06;;;;;;;6.65;5.22;;;18.90;69.10;;;;;;5034596;28;20061;-77
2021/08/20 06:11:32;;;;;;;6.05;4.78;;;18.90;69.10;;;;;;5050151;28;20029;-77
2021/08/20 06:13:58;;;;;;;6.55;4.93;;;18.90;69.10;;;;;;5051024;28;20108;-77
2021/08/20 06:16:25;;;;;;;6.15;4.72;;;18.90;69.10;;;;;;5034148;28;20037;-77
2021/08/20 06:18:51;;;;;;;6.18;5.05;;;18.90;69.10;;;;;;5052136;28;20040;-77
2021/08/20 06:21:16;;;;;;;6.78;5.35;;;18.90;69.10;;;;;;5031517;28;20091;-77
2021/08/20 06:23:42;;;;;;;6.53;5.05;;;18.90;69.10;;;;;;5050809;28;20481;-76
2021/08/20 06:26:08;;;;;;;6.60;5.22;;;18.90;69.10;;;;;;5051103;28;20109;-78
2021/08/20 06:28:34;;;;;;;6.53;5.03;;;18.90;69.10;;;;;;5033462;28;20757;-77
2021/08/20 06:31:04;;;;;;;6.70;4.93;;;19.00;69.20;;;;;;5050772;28;20116;-76
2021/08/20 06:33:31;;;;;;;6.47;4.78;;;18.90;69.10;;;;;;5050011;28;20029;-77
2021/08/20 06:35:56;;;;;;;6.25;4.65;;;19.00;69.20;;;;;;5034480;28;20037;-77
2021/08/20 06:38:22;;;;;;;6.85;4.97;;;19.00;69.20;;;;;;5033954;28;20571;-77
2021/08/20 06:40:48;;;;;;;6.25;4.95;;;19.00;69.10;;;;;;5051507;28;20029;-76
2021/08/20 06:43:14;;;;;;;5.80;4.45;;;19.00;69.10;;;;;;5050808;28;20082;-76
2021/08/20 06:45:40;;;;;;;6.18;4.80;;;19.00;69.20;;;;;;5032931;28;20477;-76
2021/08/20 06:48:06;;;;;;;5.75;4.45;;;19.00;69.10;;;;;;5033932;28;20064;-76
2021/08/20 06:50:31;;;;;;;6.07;4.80;;;19.00;69.10;;;;;;5051228;28;20504;-77
2021/08/20 06:52:57;;;;;;;6.15;4.65;;;19.00;69.10;;;;;;5030191;28;20077;-77
2021/08/20 06:55:23;;;;;;;5.85;4.35;;;19.00;69.10;;;;;;5047589;28;20060;-77
2021/08/20 06:57:49;;;;;;;6.45;4.90;;;19.10;69.20;;;;;;5051012;28;20058;-77
2021/08/20 07:00:15;;;;;;;5.35;4.15;;;19.10;69.20;;;;;;5033892;28;20025;-77
2021/08/20 07:02:46;;;;;;;6.28;4.40;;;19.10;69.20;;;;;;5032651;28;20473;-77
2021/08/20 07:05:13;;;;;;;5.90;4.40;;;19.10;69.20;;;;;;5050243;28;20155;-76
2021/08/20 07:07:39;;;;;;;5.57;4.40;;;19.10;69.20;;;;;;5050147;28;20420;-76
2021/08/20 07:10:10;;;;;;;5.47;4.32;;;19.20;69.20;;;;;;5055407;28;20044;-76
2021/08/20 07:12:37;;;;;;;5.30;4.13;;;19.20;69.20;;;;;;5035509;28;20033;-76
2021/08/20 07:15:04;;;;;;;6.10;4.60;;;19.20;69.20;;;;;;5055377;28;20029;-76
2021/08/20 07:17:30;;;;;;;6.07;4.43;;;19.20;69.20;;;;;;5037384;28;20025;-77
2021/08/20 07:19:56;;;;;;;5.40;3.80;;;19.20;69.20;;;;;;5054133;28;20036;-77
2021/08/20 07:22:22;;;;;;;5.45;4.07;;;19.30;69.20;;;;;;5054067;28;20154;-77
2021/08/20 07:24:48;;;;;;;5.53;3.88;;;19.30;69.20;;;;;;5053276;28;20444;-77
2021/08/20 07:27:14;;;;;;;5.70;4.20;;;19.30;69.20;;;;;;5053928;28;20033;-77
2021/08/20 07:29:39;;;;;;;5.60;4.43;;;19.30;69.20;;;;;;5053252;28;20477;-76
2021/08/20 07:32:06;;;;;;;5.85;4.15;;;19.30;69.10;;;;;;5037244;28;20041;-76
2021/08/20 07:34:31;;;;;;;5.43;3.88;;;19.40;69.20;;;;;;5034307;28;20095;-77
2021/08/20 07:36:57;;;;;;;5.57;4.10;;;19.40;69.10;;;;;;5046384;28;20032;-76
2021/08/20 07:39:26;;;;;;;5.82;4.28;;;19.40;69.10;;;;;;5054968;28;20029;-76
2021/08/20 07:41:52;;;;;;;5.95;4.32;;;19.40;69.10;;;;;;5020530;28;20075;-76
2021/08/20 07:44:18;;;;;;;6.00;4.20;;;19.50;69.10;;;;;;5034110;28;20034;-76
2021/08/20 07:46:44;;;;;;;4.82;3.83;;;19.50;69.10;;;;;;5043143;28;20032;-77
2021/08/20 07:49:10;;;;;;;5.45;4.13;;;19.50;69.10;;;;;;5053577;28;20025;-77
2021/08/20 07:51:36;;;;;;;5.57;4.45;;;19.50;69.20;;;;;;5052795;28;20421;-77
2021/08/20 07:54:02;;;;;;;5.43;4.07;;;19.60;69.10;;;;;;5036893;28;20134;-76
2021/08/20 07:56:27;;;;;;;5.88;4.20;;;19.60;69.10;;;;;;5054025;28;20029;-77
2021/08/20 07:58:53;;;;;;;5.82;4.20;;;19.60;69.10;;;;;;5002629;28;20037;-77
2021/08/20 08:01:19;;;;;;;6.00;4.22;;;19.60;69.00;;;;;;5020455;28;20047;-76
2021/08/20 08:03:44;;;;;;;5.60;4.00;;;19.70;69.10;;;;;;5019878;28;20088;-76
2021/08/20 08:06:13;;;;;;;5.43;4.07;;;19.70;69.10;;;;;;5033438;28;20469;-77
2021/08/20 08:08:39;;;;;;;5.53;3.90;;;19.70;69.00;;;;;;5050822;28;20457;-77
2021/08/20 08:11:06;;;;;;;5.28;3.88;;;19.70;69.10;;;;;;5036788;28;20025;-77
2021/08/20 08:13:31;;;;;;;6.25;4.38;;;19.80;69.10;;;;;;5052795;28;20029;-76
2021/08/20 08:15:57;;;;;;;5.47;3.97;;;19.80;69.20;;;;;;5003359;28;20374;-77
2021/08/20 08:18:23;;;;;;;5.50;4.15;;;19.80;69.10;;;;;;5053407;28;20083;-76
2021/08/20 08:20:49;;;;;;;4.82;3.63;;;19.80;69.00;;;;;;5051995;28;20040;-77
2021/08/20 08:23:15;;;;;;;5.60;3.90;;;19.90;69.10;;;;;;5033157;28;20071;-77
2021/08/20 08:25:41;;;;;;;6.65;4.25;;;19.90;69.00;;;;;;5036199;28;20052;-77
2021/08/20 08:28:07;;;;;;;5.25;4.30;;;20.00;69.10;;;;;;5053792;28;20061;-77
2021/08/20 08:30:38;;;;;;;5.65;4.20;;;20.00;69.10;;;;;;5053877;28;20029;-76
2021/08/20 08:33:05;;;;;;;5.18;3.83;;;20.00;69.20;;;;;;5052803;28;20439;-77
2021/08/20 08:35:31;;;;;;;5.50;4.38;;;20.00;69.10;;;;;;5036687;28;20028;-76
2021/08/20 08:38:09;;;;;;;5.47;4.15;;;20.10;69.20;;;;;;5051848;28;20450;-76
2021/08/20 08:40:37;;;;;;;5.22;4.00;;;20.10;69.30;;;;;;5054127;28;20029;-77
2021/08/20 08:43:06;;;;;;;5.43;3.90;;;20.20;69.20;;;;;;5052058;28;20041;-77
2021/08/20 08:45:32;;;;;;;5.55;4.18;;;20.20;69.20;;;;;;5033224;28;20088;-76
2021/08/20 08:48:02;;;;;;;5.70;4.28;;;20.20;69.20;;;;;;5031527;28;20112;-77
2021/08/20 08:50:28;;;;;;;5.72;4.50;;;20.20;69.30;;;;;;5053295;28;20020;-76
2021/08/20 08:52:54;;;;;;;5.65;4.30;;;20.30;69.30;;;;;;5052941;28;20055;-77
2021/08/20 08:55:19;;;;;;;5.22;3.90;;;20.40;69.40;;;;;;5052394;28;20389;-76
2021/08/20 08:57:45;;;;;;;5.35;4.43;;;20.40;69.40;;;;;;5052839;28;20032;-77
2021/08/20 09:00:12;;;;;;;5.45;4.38;;;20.50;69.50;;;;;;5035630;28;20474;-76
2021/08/20 09:02:38;;;;;;;6.05;4.57;;;20.50;69.60;;;;;;5053362;28;20037;-78
2021/08/20 09:05:10;;;;;;;5.70;4.20;;;20.60;69.60;;;;;;5051299;28;20029;-77
2021/08/20 09:07:35;;;;;;;5.75;4.43;;;20.60;69.70;;;;;;5052484;28;20036;-76
2021/08/20 09:10:11;;;;;;;5.55;4.30;;;20.70;69.60;;;;;;5052185;28;20781;-78
2021/08/20 09:12:37;;;;;;;5.03;3.90;;;20.70;69.70;;;;;;5045459;28;20120;-76
2021/08/20 09:15:03;;;;;;;4.90;4.05;;;20.80;69.50;;;;;;5051615;28;20128;-77
2021/08/20 09:17:32;;;;;;;5.15;4.03;;;20.90;69.50;;;;;;5034880;28;20037;-76
2021/08/20 09:20:16;;;;;;;4.75;3.72;;;20.90;69.40;;;;;;5051699;28;20052;-76
2021/08/20 09:22:42;;;;;;;4.65;3.80;;;21.00;69.50;;;;;;5053187;28;20458;-77
2021/08/20 09:25:08;;;;;;;5.22;3.75;;;21.00;69.20;;;;;;5051780;28;20043;-77
2021/08/20 09:27:35;;;;;;;5.32;4.03;;;21.10;69.20;;;;;;5052666;28;20029;-76
2021/08/20 09:30:07;;;;;;;4.65;3.58;;;21.20;69.10;;;;;;5051757;28;20060;-77
2021/08/20 09:32:46;;;;;;;4.53;3.65;;;21.20;69.00;;;;;;5050334;28;20032;-76
2021/08/20 09:35:13;;;;;;;5.57;3.95;;;21.30;69.00;;;;;;5053379;28;20485;-76
2021/08/20 09:37:39;;;;;;;5.10;3.83;;;21.30;68.80;;;;;;5051352;28;20033;-76
2021/08/20 09:40:12;;;;;;;5.30;3.90;;;21.40;68.80;;;;;;5051848;28;20893;-76
2021/08/20 09:42:38;;;;;;;5.63;4.32;;;21.40;68.80;;;;;;5019086;28;20021;-77
2021/08/20 09:45:20;;;;;;;5.68;4.15;;;21.50;68.80;;;;;;5034645;28;20063;-77
2021/08/20 09:47:49;;;;;;;4.85;3.60;;;21.50;68.80;;;;;;5050925;28;20111;-77
2021/08/20 09:50:15;;;;;;;5.05;3.80;;;21.60;68.70;;;;;;5051509;28;20084;-77
2021/08/20 09:52:40;;;;;;;4.80;3.50;;;21.70;68.70;;;;;;5051083;28;20040;-77
2021/08/20 09:55:07;;;;;;;4.43;3.38;;;21.70;68.50;;;;;;5050563;28;20067;-77
2021/08/20 09:57:37;;;;;;;4.57;3.40;;;21.80;68.40;;;;;;5052988;28;20029;-76
2021/08/20 10:00:08;;;;;;;4.38;3.45;;;21.80;68.40;;;;;;5050798;28;20443;-76
2021/08/20 10:02:40;;;;;;;4.85;3.30;;;21.90;68.20;;;;;;5036180;28;20048;-76
2021/08/20 10:05:07;;;;;;;4.80;3.40;;;21.90;68.10;;;;;;5050397;28;20037;-77
2021/08/20 10:07:40;;;;;;;5.03;3.70;;;22.00;68.10;;;;;;5031115;28;20030;-77
2021/08/20 10:10:08;;;;;;;4.97;3.72;;;22.00;68.00;;;;;;5050501;28;20420;-77
2021/08/20 10:12:38;;;;;;;5.00;3.50;;;22.10;68.00;;;;;;5050842;28;20036;-76
2021/08/20 10:15:05;;;;;;;4.40;3.50;;;22.20;67.90;;;;;;5052313;28;20037;-76
2021/08/20 10:17:32;;;;;;;4.47;3.25;;;22.30;67.90;;;;;;5050664;28;20036;-76
2021/08/20 10:19:59;;;;;;;4.80;3.60;;;22.30;67.80;;;;;;5050699;28;20037;-77
2021/08/20 10:22:25;;;;;;;4.70;3.45;;;22.40;67.70;;;;;;5032636;28;20401;-77
2021/08/20 10:24:50;;;;;;;3.92;3.08;;;22.40;67.60;;;;;;5030361;28;20112;-77
2021/08/20 10:27:18;;;;;;;4.55;3.33;;;22.50;67.50;;;;;;5014578;28;20155;-76
2021/08/20 10:29:47;;;;;;;4.18;3.13;;;22.50;67.40;;;;;;5050737;28;20086;-77
2021/08/20 10:32:14;;;;;;;4.68;3.55;;;22.60;67.30;;;;;;5050503;28;20388;-77
2021/08/20 10:34:41;;;;;;;4.20;3.22;;;22.60;67.30;;;;;;5050126;28;20041;-77
2021/08/20 10:37:15;;;;;;;4.10;3.33;;;22.70;67.20;;;;;;5050306;28;20463;-77
2021/08/20 10:39:49;;;;;;;4.72;3.53;;;22.80;67.20;;;;;;5032206;28;20543;-77
2021/08/20 10:42:17;;;;;;;3.92;2.95;;;22.80;67.00;;;;;;5033889;28;20071;-77
2021/08/20 10:44:48;;;;;;;4.07;2.95;;;22.90;66.90;;;;;;5049998;28;20029;-77
2021/08/20 10:47:22;;;;;;;4.78;3.58;;;22.90;66.90;;;;;;5051785;28;20036;-77
2021/08/20 10:49:49;;;;;;;4.53;3.38;;;22.90;66.80;;;;;;5050859;28;20021;-77
2021/08/20 10:52:27;;;;;;;4.40;3.13;;;23.00;66.70;;;;;;5033155;28;20079;-77
2021/08/20 10:54:57;;;;;;;5.75;3.30;;;23.00;66.70;;;;;;5049842;28;20045;-77
2021/08/20 10:57:35;;;;;;;4.07;3.08;;;23.00;66.50;;;;;;5050516;28;20060;-76
2021/08/20 11:00:03;;;;;;;3.63;2.75;;;23.10;66.60;;;;;;5033187;28;20090;-77
2021/08/20 11:02:29;;;;;;;3.50;2.60;;;23.20;66.50;;;;;;5051351;28;20036;-77
2021/08/20 11:05:01;;;;;;;3.63;2.90;;;23.20;66.50;;;;;;5050781;28;20116;-77
2021/08/20 11:07:36;;;;;;;4.28;2.92;;;23.20;66.40;;;;;;5051152;28;20489;-77
2021/08/20 11:10:08;;;;;;;4.22;3.05;;;23.20;66.30;;;;;;5050774;28;20473;-77
2021/08/20 11:12:53;;;;;;;3.78;2.65;;;23.30;66.30;;;;;;5050373;28;20432;-76
2021/08/20 11:15:21;;;;;;;4.25;2.92;;;23.30;66.20;;;;;;5033363;28;20086;-76
2021/08/20 11:18:06;;;;;;;3.03;2.17;;;23.40;66.20;;;;;;5050069;28;20037;-77
2021/08/20 11:20:38;;;;;;;3.40;2.67;;;23.40;66.20;;;;;;5051665;28;20053;-76
2021/08/20 11:25:48;;;;;;;2.95;2.20;;;23.50;66.10;;;;;;5050135;28;20036;-76
2021/08/20 11:28:39;;;;;;;2.85;2.25;;;23.50;66.10;;;;;;5049256;28;20389;-78
2021/08/20 11:31:14;;;;;;;3.42;2.60;;;23.50;66.10;;;;;;5049812;28;20059;-77
2021/08/20 11:33:47;;;;;;;3.20;2.38;;;23.60;66.00;;;;;;5044478;28;20424;-76
2021/08/20 11:36:18;;;;;;;3.13;2.40;;;23.60;66.00;;;;;;5050449;28;20120;-77
2021/08/20 11:38:48;;;;;;;3.47;2.60;;;23.60;65.90;;;;;;5051534;28;20061;-77
2021/08/20 11:41:22;;;;;;;3.45;2.28;;;23.70;65.90;;;;;;5049537;28;20464;-76
2021/08/20 11:43:54;;;;;;;3.25;2.25;;;23.70;65.80;;;;;;5050049;28;20504;-76
2021/08/20 11:46:20;;;;;;;2.65;2.20;;;23.80;65.80;;;;;;5049295;28;20032;-79
2021/08/20 11:48:56;;;;;;;2.88;2.20;;;23.80;65.80;;;;;;5049784;28;20033;-78
2021/08/20 11:51:33;;;;;;;2.33;1.98;;;23.80;65.80;;;;;;5049168;28;20462;-77
2021/08/20 11:54:02;;;;;;;2.25;1.88;;;23.90;66.40;;;;;;5049254;28;20041;-78
2021/08/20 11:56:28;;;;;;;3.30;2.25;;;23.90;65.60;;;;;;5054111;28;20028;-79
2021/08/20 11:58:54;;;;;;;3.45;2.38;;;23.90;65.60;;;;;;5053800;28;20044;-78
2021/08/20 12:01:24;;;;;;;2.60;2.13;;;24.00;65.60;;;;;;5053180;28;20037;-78
2021/08/20 12:03:56;;;;;;;2.67;2.10;;;24.00;65.60;;;;;;5046133;28;20021;-79
2021/08/20 12:06:23;;;;;;;2.08;1.83;;;24.10;65.60;;;;;;5054203;28;20053;-78
2021/08/20 12:08:49;;;;;;;2.58;2.10;;;24.10;65.60;;;;;;5045541;28;20048;-77
2021/08/20 12:11:21;;;;;;;2.88;2.22;;;24.10;65.50;;;;;;5054209;28;20049;-77
2021/08/20 12:13:52;;;;;;;2.70;2.08;;;24.20;65.60;;;;;;5036369;28;20457;-77
2021/08/20 12:16:41;;;;;;;2.38;1.92;;;24.20;65.50;;;;;;5052853;28;20436;-78
2021/08/20 12:19:14;;;;;;;2.67;1.85;;;24.20;65.60;;;;;;5052781;28;20056;-77
2021/08/20 12:21:40;;;;;;;2.40;2.05;;;24.30;65.50;;;;;;5053159;28;20039;-77
2021/08/20 12:24:06;;;;;;;2.47;1.90;;;24.30;65.40;;;;;;5032852;28;20116;-77
2021/08/20 12:26:32;;;;;;;2.85;2.05;;;24.30;65.40;;;;;;5052938;28;20024;-78
2021/08/20 12:28:58;;;;;;;1.73;1.63;;;24.40;65.40;;;;;;5045154;28;20048;-78
2021/08/20 12:31:25;;;;;;;2.55;2.10;;;24.40;65.40;;;;;;5032856;28;20063;-77
2021/08/20 12:33:58;;;;;;;2.28;2.08;;;24.40;65.40;;;;;;5052397;28;20497;-77
2021/08/20 12:36:24;;;;;;;2.33;1.70;;;24.40;65.30;;;;;;5035969;28;20178;-77
2021/08/20 12:39:10;;;;;;;3.08;2.17;;;24.50;65.60;;;;;;5019400;28;20510;-77
2021/08/20 12:41:37;;;;;;;2.47;1.92;;;24.50;65.30;;;;;;5053793;28;20122;-78
2021/08/20 12:44:05;;;;;;;3.33;2.08;;;24.50;65.20;;;;;;5060898;28;20086;-77
2021/08/20 12:46:39;;;;;;;2.30;1.90;;;24.60;65.20;;;;;;5032804;28;20034;-76
2021/08/20 12:49:06;;;;;;;2.33;1.90;;;24.60;65.20;;;;;;5053618;28;20021;-78
2021/08/20 12:51:37;;;;;;;2.85;2.28;;;24.60;65.10;;;;;;5032793;28;20026;-76
2021/08/20 12:54:10;;;;;;;3.10;2.20;;;24.60;65.10;;;;;;5052537;28;20072;-78
2021/08/20 12:56:41;;;;;;;2.28;1.90;;;24.60;65.10;;;;;;5052607;28;20522;-77
2021/08/20 12:59:09;;;;;;;2.72;1.88;;;24.70;65.10;;;;;;5051662;28;20485;-77